Time;durP1;ratioP1;P1;durP2;ratioP2;P2;SDS_P1;SDS_P2;PMS_P1;PMS_P2;Temp;Humidity;BMP_temperature;BMP_pressure;BME280_temperature;BME280_humidity;BME280_pressure;Samples;Min_cycle;Max_cycle;Signal;HPM_P1;HPM_P2
2022/09/08 00:01:41;;;;;;;3.63;2.30;;;;;;;23.97;55.72;99188.63;4122753;28;20736;-63
2022/09/08 00:03:43;;;;;;;3.97;2.60;;;;;;;24.27;54.87;99195.38;4118789;28;20243;-64
2022/09/08 00:05:59;;;;;;;5.68;2.40;;;;;;;23.04;57.12;99192.44;4129697;28;20248;-63
2022/09/08 00:08:01;;;;;;;3.17;2.30;;;;;;;23.85;55.80;99167.09;4140340;28;20260;-63
2022/09/08 00:10:03;;;;;;;3.90;2.25;;;;;;;23.64;56.30;99176.22;4140898;28;20233;-63
2022/09/08 00:12:06;;;;;;;4.03;2.40;;;;;;;24.58;54.50;99177.31;4138763;28;20234;-63
2022/09/08 00:14:08;;;;;;;4.67;3.20;;;;;;;25.39;52.80;99180.50;4140112;28;20328;-63
2022/09/08 00:16:11;;;;;;;2.60;2.37;;;;;;;25.97;51.50;99177.53;4140546;28;20267;-63
2022/09/08 00:18:13;;;;;;;3.00;2.70;;;;;;;26.04;51.32;99188.13;4141510;28;20601;-63
2022/09/08 00:20:15;;;;;;;3.77;2.70;;;;;;;25.47;52.47;99195.50;4141599;28;20237;-63
2022/09/08 00:22:17;;;;;;;6.07;3.00;;;;;;;26.19;51.28;99192.72;4144250;28;20312;-64
2022/09/08 00:24:18;;;;;;;6.95;2.72;;;;;;;26.22;51.30;99203.06;4141874;28;20717;-63
2022/09/08 00:26:21;;;;;;;3.60;2.50;;;;;;;26.26;51.04;99207.69;4144391;28;20609;-63
2022/09/08 00:28:22;;;;;;;5.82;3.00;;;;;;;24.18;54.53;99214.06;4142992;28;20718;-63
2022/09/08 00:30:26;;;;;;;3.80;2.93;;;;;;;25.00;53.55;99200.03;4143438;28;20772;-63
2022/09/08 00:32:28;;;;;;;5.63;2.60;;;;;;;25.96;51.94;99195.78;4144137;28;20232;-63
2022/09/08 00:34:34;;;;;;;4.53;2.97;;;;;;;26.28;50.93;99199.22;4142160;28;20241;-63
2022/09/08 00:36:35;;;;;;;7.25;2.80;;;;;;;25.95;51.93;99198.78;4142435;28;21056;-62
2022/09/08 00:38:37;;;;;;;6.20;2.63;;;;;;;26.04;51.34;99196.31;4144976;28;20241;-63
2022/09/08 00:40:47;;;;;;;4.22;2.80;;;;;;;26.21;51.25;99190.53;4142807;28;20239;-63
2022/09/08 00:43:03;;;;;;;4.23;2.90;;;;;;;26.27;50.97;99187.53;4143989;28;20319;-64
2022/09/08 00:45:05;;;;;;;3.10;2.60;;;;;;;23.85;55.52;99207.03;4142464;28;20606;-63
2022/09/08 00:47:36;;;;;;;4.60;3.20;;;;;;;25.10;54.20;99177.47;4143636;28;20251;-63
2022/09/08 00:49:38;;;;;;;3.78;2.75;;;;;;;24.74;54.61;99186.31;4148406;28;20239;-63
2022/09/08 00:51:42;;;;;;;5.55;3.50;;;;;;;26.13;51.60;99187.31;4145709;28;20316;-63
2022/09/08 00:53:46;;;;;;;3.77;2.93;;;;;;;23.99;55.34;99208.22;4141793;28;20902;-63
2022/09/08 00:55:47;;;;;;;4.88;3.78;;;;;;;25.58;52.68;99191.69;4143441;28;20247;-63
2022/09/08 00:57:49;;;;;;;5.60;3.10;;;;;;;26.22;51.57;99197.59;4139842;28;20878;-63
2022/09/08 00:59:52;;;;;;;3.53;3.08;;;;;;;26.09;51.50;99199.03;4144691;28;20231;-63
2022/09/08 01:01:54;;;;;;;5.00;3.20;;;;;;;23.79;56.32;99208.03;4143944;28;20255;-63
2022/09/08 01:03:57;;;;;;;5.63;3.28;;;;;;;24.75;54.84;99193.41;4140525;28;20244;-63
2022/09/08 01:06:17;;;;;;;7.47;3.30;;;;;;;23.86;57.14;99178.81;4145557;28;20610;-63
2022/09/08 01:14:01;;;;;;;8.18;3.83;;;;;;;23.02;57.92;99184.56;4141613;28;20233;-63
2022/09/08 01:16:06;;;;;;;5.43;3.90;;;;;;;23.05;58.44;99176.97;4144093;28;20229;-63
2022/09/08 01:18:07;;;;;;;7.13;3.40;;;;;;;21.99;60.84;99170.78;4141348;28;20765;-63
2022/09/08 01:20:10;;;;;;;6.37;3.70;;;;;;;22.34;60.85;99151.50;4140131;28;20229;-63
2022/09/08 01:22:46;;;;;;;5.20;3.30;;;;;;;22.95;59.19;99154.13;4144311;28;20225;-63
2022/09/08 01:25:17;;;;;;;5.13;3.60;;;;;;;23.11;58.73;99160.50;4140721;28;20294;-63
2022/09/08 01:27:31;;;;;;;5.97;4.00;;;;;;;22.68;59.59;99154.09;4143641;28;20248;-64
2022/09/08 01:29:33;;;;;;;5.43;3.63;;;;;;;23.20;59.11;99129.16;4137604;28;20230;-63
2022/09/08 01:31:39;;;;;;;4.27;3.63;;;;;;;22.44;60.93;99131.88;4143245;28;20229;-63
2022/09/08 01:33:41;;;;;;;5.87;4.20;;;;;;;22.11;61.17;99133.56;4141679;28;20290;-63
2022/09/08 01:35:44;;;;;;;6.27;3.90;;;;;;;22.27;61.12;99121.03;4141323;28;20351;-63
2022/09/08 01:37:45;;;;;;;6.53;4.20;;;;;;;24.89;55.05;99120.34;4141382;28;20268;-63
2022/09/08 01:39:47;;;;;;;6.70;4.13;;;;;;;25.01;54.48;99134.47;4143085;28;20233;-63
2022/09/08 01:41:48;;;;;;;4.40;4.00;;;;;;;24.48;55.66;99155.50;4144997;28;20714;-63
2022/09/08 01:43:50;;;;;;;6.07;4.43;;;;;;;22.80;58.95;99175.63;4141181;28;20235;-63
2022/09/08 01:45:56;;;;;;;6.47;4.20;;;;;;;22.15;61.41;99156.34;4140291;28;20247;-63
2022/09/08 01:47:58;;;;;;;5.63;3.83;;;;;;;22.46;60.31;99171.16;4140261;28;20316;-63
2022/09/08 01:49:59;;;;;;;11.13;4.93;;;;;;;22.47;60.11;99166.56;4139672;28;20252;-64
2022/09/08 01:52:01;;;;;;;6.23;3.73;;;;;;;22.31;60.85;99160.13;4146359;28;20316;-64
2022/09/08 01:54:03;;;;;;;6.47;4.37;;;;;;;23.95;57.10;99163.66;4142112;28;20229;-64
2022/09/08 01:56:05;;;;;;;8.07;4.97;;;;;;;23.75;57.77;99167.03;4141022;28;20324;-63
2022/09/08 01:58:07;;;;;;;7.67;4.53;;;;;;;23.33;58.64;99189.47;4141389;28;20275;-64
2022/09/08 02:00:09;;;;;;;5.90;4.80;;;;;;;23.55;58.06;99187.53;4143401;28;20313;-64
2022/09/08 02:02:11;;;;;;;6.43;5.03;;;;;;;23.28;59.29;99173.13;4142221;28;20239;-64
2022/09/08 02:04:13;;;;;;;6.47;4.73;;;;;;;21.94;61.93;99187.75;4142263;28;20241;-64
2022/09/08 02:06:14;;;;;;;6.80;5.27;;;;;;;22.50;61.11;99171.47;4140909;28;20308;-64
2022/09/08 02:08:16;;;;;;;10.13;5.53;;;;;;;23.38;58.54;99175.94;4141628;28;20325;-63
2022/09/08 02:10:17;;;;;;;7.43;5.23;;;;;;;23.41;59.05;99178.16;4147058;28;20237;-63
2022/09/08 02:12:19;;;;;;;7.80;4.93;;;;;;;23.51;58.44;99189.09;4142463;28;20340;-64
2022/09/08 02:14:21;;;;;;;9.00;5.00;;;;;;;23.91;57.57;99184.28;4138566;28;20236;-63
2022/09/08 02:16:23;;;;;;;8.03;5.97;;;;;;;25.00;55.21;99179.09;4145907;28;20311;-64
2022/09/08 02:18:26;;;;;;;9.13;5.97;;;;;;;23.64;58.41;99192.50;4140171;28;20612;-63
2022/09/08 02:20:28;;;;;;;9.60;5.67;;;;;;;24.58;56.29;99179.19;4143610;28;20313;-63
2022/09/08 02:22:32;;;;;;;7.70;5.57;;;;;;;25.87;53.21;99183.78;4142739;28;20721;-63
2022/09/08 02:24:33;;;;;;;7.30;5.30;;;;;;;24.52;54.50;99208.25;4143108;28;20230;-64
2022/09/08 02:26:35;;;;;;;9.33;5.20;;;;;;;23.66;57.42;99204.69;4145267;28;20237;-64
2022/09/08 02:28:36;;;;;;;7.63;5.77;;;;;;;24.83;55.47;99179.34;4141925;28;20259;-63
2022/09/08 02:30:38;;;;;;;7.50;5.30;;;;;;;24.18;56.57;99195.06;4145028;28;20241;-64
2022/09/08 02:32:40;;;;;;;10.03;5.43;;;;;;;23.85;57.02;99196.16;4137374;28;20241;-64
2022/09/08 02:34:41;;;;;;;9.67;5.37;;;;;;;23.50;58.25;99192.88;4143896;28;20723;-64
2022/09/08 02:36:43;;;;;;;8.70;5.13;;;;;;;23.76;57.68;99182.25;4142086;28;20247;-64
2022/09/08 02:38:55;;;;;;;10.43;5.50;;;;;;;24.06;56.06;99195.22;4139058;28;20308;-64
2022/09/08 02:40:57;;;;;;;10.37;5.43;;;;;;;24.58;56.23;99166.44;4142084;28;20247;-64
2022/09/08 02:42:59;;;;;;;8.17;5.70;;;;;;;24.04;56.17;99201.97;4137474;28;20241;-64
2022/09/08 02:45:02;;;;;;;8.30;5.90;;;;;;;23.60;57.15;99197.59;4141312;28;20243;-64
2022/09/08 02:47:05;;;;;;;9.27;6.20;;;;;;;23.85;56.67;99193.44;4137867;28;20246;-63
2022/09/08 02:49:09;;;;;;;10.27;5.97;;;;;;;24.04;56.95;99188.41;4140007;28;20243;-62
2022/09/08 02:51:12;;;;;;;8.77;5.97;;;;;;;23.64;58.11;99187.06;4140367;28;20319;-63
2022/09/08 02:53:14;;;;;;;8.87;6.27;;;;;;;23.64;58.27;99179.72;4142839;28;20244;-65
2022/09/08 02:55:15;;;;;;;9.73;6.20;;;;;;;24.55;56.02;99168.84;4144946;28;20323;-63
2022/09/08 02:57:20;;;;;;;10.90;6.23;;;;;;;24.06;57.08;99169.97;4144284;28;20264;-63
2022/09/08 02:59:21;;;;;;;8.87;5.70;;;;;;;23.85;57.09;99163.59;4143734;28;20256;-62
2022/09/08 03:01:23;;;;;;;9.07;6.17;;;;;;;24.39;56.39;99154.41;4139502;28;20912;-62
2022/09/08 03:03:26;;;;;;;12.80;6.07;;;;;;;22.61;60.50;99167.81;4139133;28;20252;-62
2022/09/08 03:05:28;;;;;;;13.23;6.90;;;;;;;21.84;62.96;99147.00;4138866;28;20308;-62
2022/09/08 03:07:29;;;;;;;10.60;6.50;;;;;;;21.65;63.66;99141.84;4143569;28;20324;-65
2022/09/08 03:09:31;;;;;;;9.80;6.50;;;;;;;21.66;64.16;99126.44;4142916;28;20644;-63
2022/09/08 03:11:33;;;;;;;10.40;6.23;;;;;;;22.50;62.50;99109.16;4138823;28;20607;-63
2022/09/08 03:13:35;;;;;;;6.90;6.10;;;;;;;21.80;64.24;99110.66;4141539;28;20252;-63
2022/09/08 03:15:37;;;;;;;8.60;6.40;;;;;;;21.89;64.56;99088.34;4142601;28;20242;-63
2022/09/08 03:17:39;;;;;;;9.40;6.70;;;;;;;21.88;63.73;99100.25;4124300;28;20231;-63
2022/09/08 03:19:40;;;;;;;8.63;6.47;;;;;;;21.95;63.29;99104.66;4136742;28;20238;-63
2022/09/08 03:21:42;;;;;;;6.27;5.07;;;;;;;22.07;63.63;99089.13;4138837;28;20609;-63
2022/09/08 03:23:44;;;;;;;7.60;5.03;;;;;;;21.77;64.11;99084.13;4128070;28;20708;-64
2022/09/08 03:25:47;;;;;;;7.50;5.57;;;;;;;23.39;59.80;99088.06;4133680;28;20237;-63
2022/09/08 03:27:49;;;;;;;6.20;4.27;;;;;;;21.71;64.16;99086.78;4125476;28;20328;-63
2022/09/08 03:29:52;;;;;;;9.57;4.27;;;;;;;21.99;62.47;99095.78;4124794;28;20317;-63
2022/09/08 03:31:54;;;;;;;6.83;2.97;;;;;;;22.14;61.04;99107.91;4135855;28;20229;-63
2022/09/08 03:33:55;;;;;;;4.87;2.90;;;;;;;22.81;58.96;99121.16;4135836;28;20601;-63
2022/09/08 03:36:00;;;;;;;3.60;2.07;;;;;;;22.57;60.09;99098.94;4124360;28;20233;-64
2022/09/08 03:38:03;;;;;;;2.60;1.80;;;;;;;23.00;58.19;99120.84;4118481;28;20227;-67
2022/09/08 03:40:10;;;;;;;4.23;1.90;;;;;;;23.06;57.15;99146.91;4132773;28;20325;-63
2022/09/08 03:42:12;;;;;;;2.87;2.20;;;;;;;23.54;56.76;99122.63;4120993;28;20236;-63
2022/09/08 03:44:14;;;;;;;3.37;1.53;;;;;;;23.53;56.60;99134.56;4119334;28;20238;-63
2022/09/08 03:46:16;;;;;;;3.20;1.90;;;;;;;23.24;56.70;99162.00;4140550;28;20318;-62
2022/09/08 03:48:17;;;;;;;1.93;1.60;;;;;;;22.96;57.84;99149.50;4138694;28;20244;-63
2022/09/08 03:50:19;;;;;;;5.00;2.10;;;;;;;22.76;57.55;99175.31;4128111;28;20237;-63
2022/09/08 03:52:21;;;;;;;4.30;2.10;;;;;;;23.70;56.40;99146.09;4129676;28;20244;-62
2022/09/08 03:56:49;;;;;;;2.70;1.80;;;;;;;23.08;57.33;99181.91;4137988;28;20320;-62
2022/09/08 03:58:51;;;;;;;2.03;1.73;;;;;;;23.65;56.02;99172.41;4135159;28;20317;-62
2022/09/08 04:00:53;;;;;;;2.87;2.00;;;;;;;23.80;55.57;99174.41;4140132;28;20251;-63
2022/09/08 04:02:55;;;;;;;2.63;2.10;;;;;;;23.70;56.04;99177.88;4142297;28;20244;-63
2022/09/08 04:04:57;;;;;;;3.57;1.83;;;;;;;23.02;57.39;99189.16;4136427;28;20717;-62
2022/09/08 04:06:59;;;;;;;4.30;1.93;;;;;;;20.26;62.30;99216.75;4126240;28;20248;-62
2022/09/08 04:09:00;;;;;;;1.97;1.80;;;;;;;21.94;60.15;99186.94;4129476;28;20241;-62
2022/09/08 04:11:02;;;;;;;3.80;2.00;;;;;;;21.42;61.72;99179.88;4140473;28;20229;-62
2022/09/08 04:13:04;;;;;;;2.23;1.90;;;;;;;23.00;57.97;99167.72;4139178;28;20340;-62
2022/09/08 04:15:08;;;;;;;2.87;2.17;;;;;;;22.38;58.98;99193.25;4131693;28;20243;-62
2022/09/08 04:17:09;;;;;;;5.47;1.90;;;;;;;21.88;60.57;99177.91;4133684;28;20226;-63
2022/09/08 04:19:12;;;;;;;4.37;1.63;;;;;;;20.42;62.47;99202.53;4126550;28;20240;-63
2022/09/08 04:21:14;;;;;;;2.93;1.80;;;;;;;21.19;61.83;99181.63;4135455;28;20328;-62
2022/09/08 04:23:16;;;;;;;2.60;1.57;;;;;;;21.85;59.98;99168.41;4139918;28;20241;-63
2022/09/08 04:25:17;;;;;;;2.53;2.00;;;;;;;21.58;59.58;99194.44;4123134;28;20244;-63
2022/09/08 04:27:21;;;;;;;2.07;1.60;;;;;;;20.87;61.62;99206.44;4132297;28;20232;-63
2022/09/08 04:29:22;;;;;;;1.53;1.43;;;;;;;21.86;59.05;99188.97;4145322;28;20320;-62
2022/09/08 04:31:25;;;;;;;2.60;1.70;;;;;;;21.34;59.67;99218.94;4144025;28;20963;-61
2022/09/08 04:33:27;;;;;;;3.33;1.40;;;;;;;22.37;57.89;99178.09;4140219;28;20252;-62
2022/09/08 04:35:28;;;;;;;1.63;1.53;;;;;;;22.28;57.41;99212.06;4134079;28;20321;-63
2022/09/08 04:37:30;;;;;;;3.93;1.80;;;;;;;22.62;57.27;99190.31;4134555;28;20724;-62
2022/09/08 04:39:32;;;;;;;2.33;1.67;;;;;;;21.90;58.78;99209.09;4135908;28;20237;-62
2022/09/08 04:41:34;;;;;;;2.37;1.70;;;;;;;22.20;57.89;99199.78;4123514;28;20246;-62
2022/09/08 04:43:36;;;;;;;1.83;1.70;;;;;;;22.14;57.42;99213.50;4120409;28;20244;-63
2022/09/08 04:45:38;;;;;;;3.07;1.57;;;;;;;22.24;57.94;99217.16;4135644;28;20238;-63
2022/09/08 04:47:40;;;;;;;2.47;1.73;;;;;;;21.09;60.19;99236.34;4128809;28;20233;-62
2022/09/08 04:49:41;;;;;;;2.97;1.70;;;;;;;21.27;58.61;99259.63;4136677;28;20620;-62
2022/09/08 04:51:43;;;;;;;3.37;1.80;;;;;;;22.62;56.58;99229.09;4144496;28;20270;-62
2022/09/08 04:53:46;;;;;;;2.43;1.60;;;;;;;22.43;56.82;99254.81;4129852;28;20240;-63
2022/09/08 04:55:48;;;;;;;2.87;1.70;;;;;;;21.83;58.74;99240.91;4137607;28;20233;-62
2022/09/08 04:57:49;;;;;;;3.53;1.67;;;;;;;22.65;56.52;99230.44;4143574;28;20232;-62
2022/09/08 05:02:22;;;;;;;5.27;1.80;;;;;;;23.08;56.76;99190.03;4221213;27;20746;-63
2022/09/08 05:04:24;;;;;;;2.77;1.57;;;;;;;22.63;57.08;99208.22;4224054;27;20392;-63
2022/09/08 05:06:27;;;;;;;4.10;1.53;;;;;;;21.69;57.39;99245.00;4222771;27;20642;-63
2022/09/08 05:08:29;;;;;;;3.60;2.17;;;;;;;22.99;55.04;99235.75;4217298;27;20238;-63
2022/09/08 05:10:34;;;;;;;2.03;1.70;;;;;;;23.74;53.78;99214.28;4219139;27;20269;-64
2022/09/08 05:12:37;;;;;;;3.27;1.50;;;;;;;22.99;54.37;99254.75;4216051;27;20246;-63
2022/09/08 05:14:38;;;;;;;3.60;1.93;;;;;;;24.25;52.37;99233.66;4214256;28;20347;-63
2022/09/08 05:16:40;;;;;;;4.27;1.50;;;;;;;24.95;50.59;99240.81;4216979;27;20317;-63
2022/09/08 05:18:45;;;;;;;1.63;1.53;;;;;;;24.75;50.41;99263.25;4200543;28;20313;-64
2022/09/08 05:20:54;;;;;;;1.60;1.33;;;;;;;23.86;52.84;99290.09;4199985;28;20228;-63
2022/09/08 05:22:55;;;;;;;4.40;1.50;;;;;;;24.31;50.70;99297.81;4204118;27;20240;-64
2022/09/08 05:24:57;;;;;;;3.23;2.27;;;;;;;24.50;51.19;99289.25;4198470;27;20249;-64
2022/09/08 05:26:58;;;;;;;1.63;1.50;;;;;;;23.90;51.67;99312.94;4206733;28;20282;-63
2022/09/08 05:29:03;;;;;;;3.90;1.53;;;;;;;24.53;50.81;99285.16;4196379;28;20717;-64
2022/09/08 05:31:06;;;;;;;1.83;1.40;;;;;;;23.43;51.64;99327.09;4199234;28;20227;-64
2022/09/08 05:33:08;;;;;;;1.83;1.50;;;;;;;23.55;52.46;99317.78;4197767;28;20640;-64
2022/09/08 05:35:09;;;;;;;1.50;1.40;;;;;;;24.12;51.20;99305.50;4201568;27;20606;-64
2022/09/08 05:37:11;;;;;;;1.93;1.40;;;;;;;24.25;51.37;99293.41;4211119;28;20226;-64
2022/09/08 05:39:12;;;;;;;1.80;1.70;;;;;;;23.47;52.35;99307.34;4216341;27;20310;-64
2022/09/08 05:41:15;;;;;;;1.53;1.40;;;;;;;24.27;50.66;99302.13;4219373;28;20238;-64
2022/09/08 05:43:17;;;;;;;2.00;1.30;;;;;;;23.64;51.55;99329.00;4216880;28;20234;-64
2022/09/08 05:45:19;;;;;;;3.10;1.40;;;;;;;23.90;51.57;99305.59;4215158;28;20609;-64
2022/09/08 05:47:20;;;;;;;2.27;1.40;;;;;;;24.66;50.28;99290.94;4210531;27;20230;-64
2022/09/08 05:49:22;;;;;;;2.70;1.70;;;;;;;24.06;50.80;99332.91;4229549;27;20293;-64
2022/09/08 05:51:24;;;;;;;3.20;1.47;;;;;;;24.65;50.68;99311.06;4218087;27;20234;-63
2022/09/08 05:53:27;;;;;;;1.97;1.40;;;;;;;24.88;49.59;99322.63;4218888;27;20241;-63
2022/09/08 05:55:29;;;;;;;1.63;1.50;;;;;;;24.78;50.06;99325.28;4216964;27;20316;-64
2022/09/08 05:57:30;;;;;;;2.47;1.77;;;;;;;22.68;53.02;99341.06;4220273;28;20236;-64
2022/09/08 05:59:32;;;;;;;2.97;1.50;;;;;;;24.05;50.85;99325.84;4221783;28;20234;-64
2022/09/08 06:01:34;;;;;;;2.57;1.63;;;;;;;24.60;50.13;99321.91;4213327;27;20698;-64
2022/09/08 06:03:36;;;;;;;1.73;1.60;;;;;;;23.64;51.63;99339.03;4213366;27;20341;-63
2022/09/08 06:05:39;;;;;;;3.87;1.50;;;;;;;23.73;52.43;99294.88;4213565;27;20225;-64
2022/09/08 06:07:40;;;;;;;2.07;1.43;;;;;;;24.00;51.55;99314.94;4210993;27;20746;-64
2022/09/08 06:09:42;;;;;;;2.93;1.30;;;;;;;25.00;49.66;99315.09;4221545;28;20309;-64
2022/09/08 06:11:44;;;;;;;1.53;1.40;;;;;;;23.54;51.85;99350.56;4222099;27;20226;-64
2022/09/08 06:13:45;;;;;;;2.73;1.57;;;;;;;25.01;50.31;99284.06;4209674;28;20243;-64
2022/09/08 06:15:48;;;;;;;2.70;1.73;;;;;;;25.51;48.64;99302.72;4200458;28;20261;-64
2022/09/08 06:17:50;;;;;;;2.87;1.50;;;;;;;24.34;50.41;99339.94;4209729;28;20303;-64
2022/09/08 06:19:51;;;;;;;4.27;1.60;;;;;;;23.97;50.32;99356.97;4209540;28;20380;-64
2022/09/08 06:21:53;;;;;;;1.77;1.50;;;;;;;24.82;50.57;99319.06;4212068;28;20869;-64
2022/09/08 06:24:05;;;;;;;1.83;1.63;;;;;;;24.57;50.58;99333.31;4210928;28;20238;-63
2022/09/08 06:26:16;;;;;;;1.60;1.50;;;;;;;25.05;49.71;99328.69;4213321;28;20226;-63
2022/09/08 06:28:40;;;;;;;2.00;1.73;;;;;;;24.97;49.60;99342.81;4215112;28;20222;-63
2022/09/08 06:30:46;;;;;;;3.07;1.70;;;;;;;24.23;50.99;99359.97;4206808;28;20237;-64
2022/09/08 06:33:08;;;;;;;3.17;1.43;;;;;;;24.30;51.22;99336.13;4212734;28;20236;-64
2022/09/08 06:35:31;;;;;;;1.87;1.60;;;;;;;25.17;49.55;99323.03;4210327;28;20680;-64
2022/09/08 06:37:42;;;;;;;2.17;1.70;;;;;;;22.67;54.43;99339.41;4210741;28;20227;-63
2022/09/08 06:39:48;;;;;;;3.87;1.70;;;;;;;22.20;55.64;99327.03;4203020;28;20231;-64
2022/09/08 06:41:57;;;;;;;3.03;1.70;;;;;;;22.65;54.46;99325.28;4212272;28;20233;-63
2022/09/08 06:44:09;;;;;;;3.17;1.90;;;;;;;23.19;54.58;99279.38;4207248;28;20299;-63
2022/09/08 06:46:28;;;;;;;2.60;1.60;;;;;;;23.43;53.92;99280.97;4208280;28;20241;-64
2022/09/08 06:48:32;;;;;;;3.93;2.20;;;;;;;23.64;52.40;99320.84;4212702;28;20226;-63
2022/09/08 06:50:37;;;;;;;7.33;2.20;;;;;;;22.56;54.28;99324.09;4207608;28;20226;-66
2022/09/08 06:52:48;;;;;;;1.73;1.60;;;;;;;22.63;54.20;99338.28;4208966;28;20222;-63
2022/09/08 06:55:14;;;;;;;4.37;1.70;;;;;;;24.79;50.46;99297.84;4213696;28;20313;-64
2022/09/08 06:57:30;;;;;;;2.13;1.63;;;;;;;25.54;49.46;99277.69;4210433;28;20249;-64
2022/09/08 07:00:00;;;;;;;2.97;1.60;;;;;;;25.51;48.81;99289.13;4212862;28;20237;-64
2022/09/08 07:02:11;;;;;;;7.73;1.90;;;;;;;24.75;49.84;99331.22;4203054;28;20245;-64
2022/09/08 07:04:36;;;;;;;3.67;1.77;;;;;;;25.13;49.18;99340.97;4207613;28;20234;-63
2022/09/08 07:07:05;;;;;;;2.30;1.67;;;;;;;24.11;51.27;99351.97;4203962;28;20309;-63
2022/09/08 07:09:10;;;;;;;6.23;1.60;;;;;;;24.57;51.01;99324.34;4189140;28;20230;-65
2022/09/08 07:11:39;;;;;;;1.80;1.60;;;;;;;24.68;50.96;99315.13;4207896;28;20766;-63
2022/09/08 07:13:46;;;;;;;3.33;1.77;;;;;;;24.34;52.06;99303.81;4215747;28;20242;-64
2022/09/08 07:16:11;;;;;;;4.00;1.90;;;;;;;25.17;49.84;99292.28;4208924;28;20230;-64
2022/09/08 07:18:47;;;;;;;1.57;1.47;;;;;;;24.66;50.86;99325.47;4203506;28;20226;-63
2022/09/08 07:20:52;;;;;;;3.77;1.57;;;;;;;22.72;55.31;99309.66;4204517;28;20691;-64
2022/09/08 07:23:21;;;;;;;1.77;1.67;;;;;;;24.05;52.42;99302.19;4215730;28;20226;-64
2022/09/08 07:25:32;;;;;;;1.67;1.57;;;;;;;24.85;50.59;99307.66;4192439;28;20608;-64
2022/09/08 07:27:37;;;;;;;1.80;1.60;;;;;;;24.05;52.44;99307.63;4205269;28;20324;-64
2022/09/08 07:29:53;;;;;;;1.67;1.57;;;;;;;24.41;51.14;99324.25;4206521;28;20226;-63
2022/09/08 07:31:56;;;;;;;2.80;1.73;;;;;;;25.12;49.63;99303.97;4203628;28;20314;-63
2022/09/08 07:34:13;;;;;;;5.30;2.10;;;;;;;24.92;50.23;99322.91;4209193;28;20242;-64
2022/09/08 07:36:34;;;;;;;4.30;1.60;;;;;;;25.40;49.22;99319.03;4208117;27;20317;-63
2022/09/08 07:38:51;;;;;;;5.03;2.00;;;;;;;24.48;50.00;99362.03;4204002;28;20283;-63
2022/09/08 07:40:56;;;;;;;2.30;2.10;;;;;;;24.89;49.69;99358.81;4204261;28;20854;-63
2022/09/08 07:42:58;;;;;;;3.20;1.70;;;;;;;24.61;50.52;99363.50;4210238;28;20253;-63
2022/09/08 07:45:04;;;;;;;4.23;1.60;;;;;;;24.95;49.29;99366.72;4205676;28;20317;-63
2022/09/08 07:47:30;;;;;;;1.90;1.50;;;;;;;25.11;49.46;99348.56;4204975;28;20334;-64
2022/09/08 07:50:05;;;;;;;3.10;1.70;;;;;;;25.07;49.14;99368.41;4212753;28;20287;-64
2022/09/08 07:52:22;;;;;;;6.03;1.87;;;;;;;24.55;50.52;99359.09;4205895;28;20221;-64
2022/09/08 07:55:10;;;;;;;2.03;1.70;;;;;;;23.86;50.91;99374.28;4205284;28;20218;-64
2022/09/08 07:57:22;;;;;;;2.97;1.67;;;;;;;25.00;49.27;99338.72;4157035;28;20651;-63
2022/09/08 08:00:02;;;;;;;3.87;1.93;;;;;;;24.48;50.59;99357.44;4199591;28;20296;-64
2022/09/08 08:02:36;;;;;;;4.03;1.83;;;;;;;24.21;50.96;99371.09;4209912;28;20237;-64
2022/09/08 08:04:54;;;;;;;3.60;1.70;;;;;;;24.15;50.83;99377.53;4200874;28;20230;-64
2022/09/08 08:07:01;;;;;;;1.73;1.40;;;;;;;25.44;48.62;99343.00;4210802;28;20233;-64
2022/09/08 08:09:48;;;;;;;1.70;1.40;;;;;;;25.39;48.95;99351.97;4208085;28;20643;-64
2022/09/08 08:12:17;;;;;;;2.90;1.87;;;;;;;25.60;48.82;99348.22;4207632;28;20685;-64
2022/09/08 08:14:49;;;;;;;3.30;1.60;;;;;;;25.01;49.70;99373.81;4200616;28;20651;-64
2022/09/08 08:17:00;;;;;;;3.60;1.70;;;;;;;25.28;49.04;99369.31;4197081;28;20236;-64
2022/09/08 08:19:11;;;;;;;1.90;1.60;;;;;;;24.22;51.17;99374.63;4203441;28;20226;-64
2022/09/08 08:21:24;;;;;;;2.87;1.53;;;;;;;25.67;48.69;99342.50;4200612;28;20239;-63
2022/09/08 08:23:40;;;;;;;3.30;1.80;;;;;;;25.36;48.87;99375.09;4181508;28;20234;-64
2022/09/08 08:25:45;;;;;;;2.10;1.40;;;;;;;25.99;47.86;99346.94;4183649;28;20322;-64
2022/09/08 08:28:09;;;;;;;3.83;1.67;;;;;;;25.97;47.44;99382.63;4188431;28;20589;-64
2022/09/08 08:30:20;;;;;;;1.77;1.60;;;;;;;25.78;48.27;99379.56;4184757;28;20227;-63
2022/09/08 08:32:35;;;;;;;2.27;1.67;;;;;;;25.03;49.18;99412.44;4206204;28;20841;-63
2022/09/08 08:35:19;;;;;;;6.53;1.87;;;;;;;25.27;49.15;99390.25;4203840;28;20832;-64
2022/09/08 08:37:25;;;;;;;1.60;1.50;;;;;;;25.69;48.05;99397.50;4199117;28;20645;-64
2022/09/08 08:39:27;;;;;;;3.70;1.90;;;;;;;25.33;48.66;99389.19;4194146;28;20246;-64
2022/09/08 08:41:45;;;;;;;2.00;1.63;;;;;;;25.10;49.81;99379.56;4185497;28;20231;-64
2022/09/08 08:44:14;;;;;;;3.90;1.67;;;;;;;24.48;50.85;99398.19;4185966;28;20239;-64
2022/09/08 08:46:18;;;;;;;2.97;1.80;;;;;;;25.45;48.27;99385.47;4206254;28;20227;-63
2022/09/08 08:48:30;;;;;;;1.73;1.47;;;;;;;24.98;48.89;99393.38;4211460;28;20735;-64
2022/09/08 08:51:02;;;;;;;2.73;1.60;;;;;;;25.60;48.93;99371.91;4206745;28;20688;-63
2022/09/08 08:53:34;;;;;;;2.57;1.33;;;;;;;25.41;48.05;99394.16;4195888;28;20242;-64
2022/09/08 08:56:03;;;;;;;1.53;1.43;;;;;;;25.32;47.81;99387.53;4190629;28;20610;-63
2022/09/08 08:58:26;;;;;;;1.87;1.40;;;;;;;24.72;47.40;99400.53;4187825;28;20378;-64
2022/09/08 09:00:54;;;;;;;3.53;1.30;;;;;;;24.12;48.03;99411.44;4183746;28;20328;-64
2022/09/08 09:03:02;;;;;;;2.50;1.47;;;;;;;23.96;48.04;99415.09;4186564;28;20242;-63
2022/09/08 09:05:09;;;;;;;4.03;1.27;;;;;;;24.96;46.84;99373.78;4188537;28;20227;-64
2022/09/08 09:07:43;;;;;;;3.30;1.10;;;;;;;24.67;46.74;99395.06;4198249;28;20240;-64
2022/09/08 09:10:26;;;;;;;1.00;1.00;;;;;;;25.17;46.35;99384.75;4189617;28;20238;-64
2022/09/08 09:12:46;;;;;;;2.07;1.10;;;;;;;24.60;46.66;99419.75;4204316;28;20244;-64
2022/09/08 09:15:00;;;;;;;1.73;1.10;;;;;;;24.40;47.25;99397.88;4209198;28;20850;-63
2022/09/08 09:17:43;;;;;;;2.63;1.10;;;;;;;25.45;45.75;99396.34;4212228;28;20233;-64
2022/09/08 09:20:03;;;;;;;1.27;1.13;;;;;;;25.18;45.97;99402.75;4207710;28;20793;-64
2022/09/08 09:22:12;;;;;;;2.13;1.07;;;;;;;25.97;45.80;99376.34;4213663;28;20246;-63
2022/09/08 09:24:40;;;;;;;2.27;1.20;;;;;;;25.33;45.71;99421.84;4209508;28;20234;-63
2022/09/08 09:26:48;;;;;;;2.30;1.27;;;;;;;24.90;47.42;99415.63;4191472;28;20227;-63
2022/09/08 09:29:09;;;;;;;1.40;1.17;;;;;;;24.17;47.60;99418.03;4208231;28;20536;-64
2022/09/08 09:31:38;;;;;;;1.40;1.10;;;;;;;25.86;45.39;99361.06;4207741;28;20716;-64
2022/09/08 09:34:12;;;;;;;1.37;1.10;;;;;;;25.75;45.64;99374.66;4207722;28;20235;-64
2022/09/08 09:36:13;;;;;;;1.27;1.17;;;;;;;26.06;46.24;99363.81;4200818;28;20790;-64
2022/09/08 09:38:46;;;;;;;2.20;1.10;;;;;;;25.66;46.86;99351.78;4206259;28;20333;-64
2022/09/08 09:41:11;;;;;;;3.60;1.13;;;;;;;25.98;46.75;99356.19;4197682;28;20597;-64
2022/09/08 09:43:37;;;;;;;3.23;1.30;;;;;;;26.37;45.45;99360.28;4210421;28;20238;-63
2022/09/08 09:45:47;;;;;;;2.93;1.50;;;;;;;25.65;46.42;99396.41;4198187;28;20240;-63
2022/09/08 09:48:30;;;;;;;7.50;1.57;;;;;;;25.09;46.27;99405.16;4204375;28;20252;-62
2022/09/08 09:50:49;;;;;;;6.77;1.40;;;;;;;25.30;46.39;99373.41;4206981;28;20256;-63
2022/09/08 09:53:00;;;;;;;10.03;2.23;;;;;;;25.75;46.16;99373.84;4212836;28;20226;-62
2022/09/08 09:56:06;;;;;;;1.37;1.20;;;;;;;25.44;46.40;99378.38;4202686;28;20234;-63
2022/09/08 09:58:17;;;;;;;1.63;1.00;;;;;;;25.59;45.20;99373.81;4141344;28;20324;-62
2022/09/08 10:00:28;;;;;;;1.57;1.07;;;;;;;25.31;45.86;99391.38;4177528;28;20259;-62
2022/09/08 10:02:58;;;;;;;3.50;1.23;;;;;;;25.62;44.85;99382.53;4209861;28;20242;-62
2022/09/08 10:05:37;;;;;;;3.80;1.23;;;;;;;24.59;45.98;99396.38;4209471;28;20230;-63
2022/09/08 10:08:03;;;;;;;4.33;1.20;;;;;;;25.53;45.06;99365.91;4218848;28;20226;-63
2022/09/08 10:10:36;;;;;;;1.97;1.13;;;;;;;25.38;45.43;99391.16;4209965;28;20265;-63
2022/09/08 10:13:02;;;;;;;2.33;1.10;;;;;;;25.00;45.04;99410.28;4202246;28;20227;-63
2022/09/08 10:15:32;;;;;;;2.67;1.63;;;;;;;25.32;45.44;99387.53;4209374;28;20325;-63
2022/09/08 10:18:03;;;;;;;2.30;1.30;;;;;;;25.76;44.36;99376.31;4208044;28;20233;-63
2022/09/08 10:20:30;;;;;;;5.93;1.40;;;;;;;25.29;45.20;99403.59;4180267;28;20232;-63